Time;durP1;ratioP1;P1;durP2;ratioP2;P2;SDS_P1;SDS_P2;PMS_P1;PMS_P2;Temp;Humidity;BMP_temperature;BMP_pressure;BME280_temperature;BME280_humidity;BME280_pressure;Samples;Min_cycle;Max_cycle;Signal;HPM_P1;HPM_P2
2023/04/22 00:00:15;;;;;;;3.00;2.40;;;19.10;48.30;;;;;;4999238;28;20221;-80
2023/04/22 00:02:43;;;;;;;2.40;2.17;;;19.00;48.20;;;;;;4999096;28;20200;-80
2023/04/22 00:05:13;;;;;;;2.30;2.10;;;19.00;48.20;;;;;;4999051;28;20222;-79
2023/04/22 00:07:41;;;;;;;2.10;1.90;;;19.00;48.30;;;;;;4999796;28;20291;-79
2023/04/22 00:10:10;;;;;;;2.47;2.28;;;19.00;48.30;;;;;;4998308;28;20698;-79
2023/04/22 00:12:37;;;;;;;2.00;1.90;;;19.00;48.40;;;;;;4998956;28;20659;-79
2023/04/22 00:15:04;;;;;;;2.30;2.10;;;19.00;48.30;;;;;;4999492;28;20208;-80
2023/04/22 00:17:32;;;;;;;2.20;1.98;;;19.00;48.40;;;;;;4998841;28;20223;-80
2023/04/22 00:20:00;;;;;;;2.40;2.00;;;19.00;48.50;;;;;;4998258;28;20239;-80
2023/04/22 00:22:28;;;;;;;2.30;2.10;;;19.00;48.40;;;;;;4982739;28;20200;-80
2023/04/22 00:24:55;;;;;;;2.17;2.08;;;19.00;48.50;;;;;;4998370;28;20197;-80
2023/04/22 00:27:23;;;;;;;2.15;2.05;;;18.90;48.30;;;;;;4999721;28;20205;-80
2023/04/22 00:29:50;;;;;;;2.30;2.10;;;18.90;48.40;;;;;;4998772;28;20669;-80
2023/04/22 00:32:17;;;;;;;2.40;2.15;;;18.90;48.50;;;;;;4998282;28;20196;-79
2023/04/22 00:34:43;;;;;;;2.10;2.00;;;18.90;48.40;;;;;;5015813;28;20193;-80
2023/04/22 00:37:11;;;;;;;2.40;2.20;;;18.90;48.50;;;;;;4998415;28;20548;-80
2023/04/22 00:39:39;;;;;;;2.13;2.03;;;18.90;48.50;;;;;;5001991;28;20290;-80
2023/04/22 00:42:06;;;;;;;3.03;2.30;;;18.90;48.50;;;;;;5001302;28;20287;-80
2023/04/22 00:44:33;;;;;;;2.65;2.45;;;18.90;48.60;;;;;;5018189;28;20203;-80
2023/04/22 00:47:01;;;;;;;2.40;2.20;;;18.80;48.50;;;;;;5000567;28;20201;-79
2023/04/22 00:49:28;;;;;;;3.45;2.42;;;18.80;48.60;;;;;;5000547;28;20256;-79
2023/04/22 00:51:55;;;;;;;2.50;2.30;;;18.80;48.60;;;;;;5000560;28;20220;-79
2023/04/22 00:54:22;;;;;;;2.45;2.25;;;18.80;48.70;;;;;;5000627;28;20201;-79
2023/04/22 00:56:50;;;;;;;2.58;2.38;;;18.80;48.70;;;;;;5000852;28;20247;-79
2023/04/22 00:59:17;;;;;;;2.60;2.40;;;18.80;48.80;;;;;;5006268;28;20197;-79
2023/04/22 01:01:44;;;;;;;2.50;2.30;;;18.80;48.80;;;;;;5022462;28;20287;-80
2023/04/22 01:04:13;;;;;;;2.72;2.53;;;18.80;48.80;;;;;;5021056;28;20264;-80
2023/04/22 01:06:40;;;;;;;2.70;2.50;;;18.80;48.90;;;;;;5006961;28;20211;-80
2023/04/22 01:09:07;;;;;;;2.90;2.50;;;18.80;48.90;;;;;;5007091;28;20250;-80
2023/04/22 01:11:35;;;;;;;3.65;2.72;;;18.70;48.90;;;;;;5005734;28;20235;-79
2023/04/22 01:14:03;;;;;;;3.80;2.45;;;18.70;49.00;;;;;;5004225;28;20675;-79
2023/04/22 01:16:32;;;;;;;3.10;2.80;;;18.70;49.00;;;;;;5004729;28;20247;-79
2023/04/22 01:19:00;;;;;;;2.97;2.78;;;18.70;48.90;;;;;;5004069;28;20212;-79
2023/04/22 01:21:28;;;;;;;2.90;2.70;;;18.70;49.00;;;;;;5003556;28;20221;-79
2023/04/22 01:23:57;;;;;;;2.90;2.70;;;18.70;49.00;;;;;;5001505;28;20647;-79
2023/04/22 01:26:23;;;;;;;3.35;3.05;;;18.70;49.00;;;;;;5000648;28;20655;-79
2023/04/22 01:28:50;;;;;;;3.33;3.00;;;18.70;49.20;;;;;;5000191;28;20207;-77
2023/04/22 01:31:18;;;;;;;3.17;2.88;;;18.70;49.20;;;;;;5000268;28;20228;-78
2023/04/22 01:33:45;;;;;;;3.05;2.75;;;18.70;49.20;;;;;;5000590;28;20200;-78
2023/04/22 01:36:13;;;;;;;3.13;2.83;;;18.70;49.20;;;;;;4999237;28;20545;-78
2023/04/22 01:38:40;;;;;;;4.60;2.92;;;18.60;49.10;;;;;;4999340;28;20615;-77
2023/04/22 01:41:09;;;;;;;3.15;2.85;;;18.60;49.10;;;;;;4999058;28;20227;-78
2023/04/22 01:43:36;;;;;;;3.10;2.90;;;18.60;49.10;;;;;;4999741;28;20200;-78
2023/04/22 01:46:03;;;;;;;3.10;2.90;;;18.60;49.10;;;;;;4998965;28;20240;-78
2023/04/22 01:48:30;;;;;;;3.00;2.78;;;18.60;49.10;;;;;;4998762;28;20215;-78
2023/04/22 01:50:57;;;;;;;3.33;2.90;;;18.60;49.10;;;;;;4998473;28;20615;-79
2023/04/22 01:53:24;;;;;;;3.75;3.00;;;18.60;49.10;;;;;;4999448;28;20568;-78
2023/04/22 01:55:52;;;;;;;3.17;2.60;;;18.60;49.20;;;;;;4999123;28;20224;-78
2023/04/22 01:58:21;;;;;;;3.38;3.08;;;18.60;49.20;;;;;;4999514;28;20647;-78
2023/04/22 02:00:48;;;;;;;3.55;3.25;;;18.60;49.30;;;;;;4999030;28;20216;-78
2023/04/22 02:03:15;;;;;;;3.10;2.90;;;18.50;49.20;;;;;;4999330;28;20208;-78
2023/04/22 02:05:42;;;;;;;3.33;3.13;;;18.50;49.20;;;;;;4999178;28;20667;-78
2023/04/22 02:08:09;;;;;;;3.25;3.03;;;18.50;49.20;;;;;;4998981;28;20663;-78
2023/04/22 02:10:36;;;;;;;2.88;2.67;;;18.50;49.20;;;;;;4999084;28;20216;-78
2023/04/22 02:13:03;;;;;;;4.32;3.35;;;18.50;49.30;;;;;;4999138;28;20573;-78
2023/04/22 02:15:31;;;;;;;3.47;3.17;;;18.50;49.30;;;;;;4999097;28;20774;-78
2023/04/22 02:17:58;;;;;;;3.30;3.08;;;18.50;49.30;;;;;;4999881;28;20643;-78
2023/04/22 02:20:25;;;;;;;3.22;2.95;;;18.50;49.30;;;;;;4998919;28;20711;-78
2023/04/22 02:22:52;;;;;;;3.22;2.90;;;18.50;49.30;;;;;;4999334;28;20201;-78
2023/04/22 02:25:20;;;;;;;3.33;3.03;;;18.50;49.40;;;;;;4999590;28;20258;-78
2023/04/22 02:27:47;;;;;;;3.17;2.97;;;18.40;49.30;;;;;;5000156;28;20235;-78
2023/04/22 02:30:15;;;;;;;3.90;3.22;;;18.50;49.40;;;;;;4999114;28;20223;-78
2023/04/22 02:32:43;;;;;;;3.20;3.00;;;18.50;49.40;;;;;;4999252;28;20203;-78
2023/04/22 02:35:11;;;;;;;3.20;3.00;;;18.40;49.40;;;;;;4998844;28;20197;-78
2023/04/22 02:37:38;;;;;;;3.55;3.25;;;18.40;49.30;;;;;;4982631;28;20203;-78
2023/04/22 02:40:07;;;;;;;3.22;2.95;;;18.40;49.30;;;;;;4998878;28;20225;-78
2023/04/22 02:42:35;;;;;;;3.30;3.00;;;18.40;49.40;;;;;;4999500;28;20220;-78
2023/04/22 02:45:02;;;;;;;5.63;3.28;;;18.40;49.40;;;;;;4982500;28;20564;-78
2023/04/22 02:47:29;;;;;;;2.90;2.70;;;18.40;49.40;;;;;;4998397;28;20300;-78
2023/04/22 02:49:57;;;;;;;3.20;2.90;;;18.40;49.40;;;;;;4999092;28;20201;-78
2023/04/22 02:52:25;;;;;;;3.55;3.25;;;18.40;49.40;;;;;;4998249;28;20288;-78
2023/04/22 02:54:52;;;;;;;3.45;3.15;;;18.40;50.10;;;;;;4998145;28;20759;-77
2023/04/22 02:57:19;;;;;;;3.20;2.90;;;18.40;49.50;;;;;;4998364;28;20570;-78
2023/04/22 02:59:47;;;;;;;3.63;3.08;;;18.40;49.50;;;;;;4998224;28;20213;-80
2023/04/22 03:02:17;;;;;;;2.97;2.78;;;18.30;49.40;;;;;;4997899;28;20205;-79
2023/04/22 03:05:12;;;;;;;5.28;3.42;;;18.30;49.40;;;;;;5012772;28;20678;-79
2023/04/22 03:07:39;;;;;;;4.07;2.92;;;18.30;50.00;;;;;;4998064;28;20235;-79
2023/04/22 03:10:08;;;;;;;3.58;3.28;;;18.30;49.40;;;;;;4999116;28;20217;-79
2023/04/22 03:12:35;;;;;;;2.75;2.55;;;18.40;49.50;;;;;;4998114;28;20594;-80
2023/04/22 03:15:03;;;;;;;3.22;3.03;;;18.30;49.40;;;;;;4998237;28;20196;-79
2023/04/22 03:17:32;;;;;;;3.90;2.92;;;18.30;49.40;;;;;;4997971;28;20632;-80
2023/04/22 03:20:01;;;;;;;3.05;2.78;;;18.30;49.30;;;;;;4998568;28;20239;-80
2023/04/22 03:22:31;;;;;;;3.33;3.03;;;18.30;49.40;;;;;;4998147;28;20227;-80
2023/04/22 03:25:01;;;;;;;2.92;2.72;;;18.30;49.40;;;;;;4982463;28;20218;-79
2023/04/22 03:27:29;;;;;;;3.65;2.80;;;18.30;49.50;;;;;;4998478;28;20609;-79
2023/04/22 03:29:56;;;;;;;2.70;2.50;;;18.30;49.50;;;;;;5001073;28;20291;-79
2023/04/22 03:32:23;;;;;;;3.35;2.80;;;18.30;49.40;;;;;;5008234;28;20570;-79
2023/04/22 03:35:00;;;;;;;3.08;2.88;;;18.30;49.40;;;;;;5009741;28;20193;-79
2023/04/22 03:37:28;;;;;;;3.30;3.00;;;18.40;49.40;;;;;;5014492;28;20184;-79
2023/04/22 03:39:57;;;;;;;3.05;2.85;;;18.40;49.40;;;;;;4999868;28;20213;-79
2023/04/22 03:42:25;;;;;;;3.10;2.90;;;18.40;49.20;;;;;;4998603;28;20741;-79
2023/04/22 03:44:52;;;;;;;2.70;2.50;;;18.40;49.20;;;;;;4997970;28;20201;-79
2023/04/22 03:47:25;;;;;;;3.05;2.80;;;18.50;49.00;;;;;;4998482;28;20191;-79
2023/04/22 03:49:58;;;;;;;2.97;2.78;;;18.50;49.00;;;;;;4997860;28;20687;-79
2023/04/22 03:52:25;;;;;;;3.20;2.90;;;18.50;49.10;;;;;;4997782;28;20210;-79
2023/04/22 03:54:59;;;;;;;2.60;2.40;;;18.50;49.00;;;;;;4998604;28;20189;-79
2023/04/22 03:57:28;;;;;;;2.92;2.72;;;18.50;49.00;;;;;;4997597;28;20205;-79
2023/04/22 03:59:55;;;;;;;3.17;2.90;;;18.50;49.00;;;;;;4997639;28;20682;-79
2023/04/22 04:02:22;;;;;;;3.78;2.72;;;18.50;49.00;;;;;;4997664;28;20196;-79
2023/04/22 04:04:49;;;;;;;3.10;2.90;;;18.50;49.00;;;;;;4997421;28;20279;-79
2023/04/22 04:07:17;;;;;;;3.00;2.80;;;18.50;49.00;;;;;;4997023;28;20193;-79
2023/04/22 04:09:44;;;;;;;4.13;2.85;;;18.50;49.00;;;;;;4997000;28;20207;-79
2023/04/22 04:12:13;;;;;;;3.22;2.80;;;18.50;49.00;;;;;;4996728;28;20713;-78
2023/04/22 04:14:44;;;;;;;3.10;2.90;;;18.50;49.00;;;;;;4997014;28;20718;-78
2023/04/22 04:17:14;;;;;;;2.92;2.67;;;18.50;49.00;;;;;;4997147;28;20200;-78
2023/04/22 04:19:41;;;;;;;3.00;2.80;;;18.40;48.90;;;;;;4980794;28;20216;-78
2023/04/22 04:22:09;;;;;;;3.75;2.78;;;18.40;48.80;;;;;;4996846;28;20663;-78
2023/04/22 04:24:41;;;;;;;3.13;2.83;;;18.40;48.80;;;;;;4997356;28;20203;-78
2023/04/22 04:27:16;;;;;;;3.45;2.80;;;18.40;48.80;;;;;;4997662;28;20276;-79
2023/04/22 04:29:51;;;;;;;2.90;2.70;;;18.40;48.80;;;;;;4996685;28;20193;-78
2023/04/22 04:32:28;;;;;;;2.80;2.60;;;18.40;48.90;;;;;;4996966;28;20193;-78
2023/04/22 04:34:58;;;;;;;3.08;2.78;;;18.40;48.90;;;;;;4997128;28;20196;-82
2023/04/22 04:37:26;;;;;;;2.90;2.70;;;18.40;49.00;;;;;;4981426;28;20201;-78
2023/04/22 04:40:06;;;;;;;3.65;2.80;;;18.40;48.90;;;;;;4997608;28;20283;-76
2023/04/22 04:42:57;;;;;;;2.88;2.67;;;18.40;49.00;;;;;;4997478;28;20200;-77
2023/04/22 04:45:31;;;;;;;2.92;2.72;;;18.40;49.00;;;;;;4996943;28;20262;-77
2023/04/22 04:47:59;;;;;;;3.10;2.80;;;18.40;49.20;;;;;;4996931;28;20254;-76
2023/04/22 04:50:34;;;;;;;2.80;2.60;;;18.40;49.40;;;;;;4997396;28;20583;-76
2023/04/22 04:53:02;;;;;;;2.90;2.70;;;18.50;49.60;;;;;;4997409;28;20672;-76
2023/04/22 04:55:37;;;;;;;3.40;2.70;;;18.40;49.40;;;;;;4997567;28;20283;-76
2023/04/22 04:58:11;;;;;;;4.07;2.60;;;18.40;49.70;;;;;;4998201;28;20651;-76
2023/04/22 05:00:38;;;;;;;3.25;2.95;;;18.40;50.50;;;;;;4997930;28;20228;-76
2023/04/22 05:03:06;;;;;;;3.53;3.00;;;18.40;49.80;;;;;;4997059;28;20196;-76
2023/04/22 05:05:34;;;;;;;3.00;2.80;;;18.40;50.10;;;;;;4997729;28;20197;-76
2023/04/22 05:08:01;;;;;;;3.17;2.88;;;18.40;50.20;;;;;;4980832;28;20275;-76
2023/04/22 05:10:28;;;;;;;3.42;2.83;;;18.40;50.10;;;;;;4996783;28;20232;-76
2023/04/22 05:12:57;;;;;;;3.33;2.80;;;18.50;50.40;;;;;;4996858;28;20197;-76
2023/04/22 05:15:27;;;;;;;2.88;2.67;;;18.40;50.10;;;;;;4996378;28;20227;-77
2023/04/22 05:17:54;;;;;;;3.63;2.60;;;18.50;49.90;;;;;;4996282;28;20592;-80
2023/04/22 05:20:21;;;;;;;3.03;2.80;;;18.50;50.00;;;;;;4996245;28;20628;-80
2023/04/22 05:22:49;;;;;;;3.75;2.70;;;18.50;50.00;;;;;;4997002;28;20555;-80
2023/04/22 05:25:17;;;;;;;3.03;2.83;;;18.50;49.90;;;;;;4999858;28;20216;-80
2023/04/22 05:27:53;;;;;;;3.00;2.80;;;18.50;49.80;;;;;;5001040;28;20548;-80
2023/04/22 05:30:22;;;;;;;3.10;2.80;;;18.50;49.70;;;;;;4999679;28;20283;-79
2023/04/22 05:32:50;;;;;;;3.28;2.97;;;18.40;49.60;;;;;;5000252;28;20235;-79
2023/04/22 05:35:18;;;;;;;3.53;2.60;;;18.50;49.60;;;;;;4999927;28;20208;-79
2023/04/22 05:37:45;;;;;;;3.35;2.70;;;18.50;49.60;;;;;;4999791;28;20309;-79
2023/04/22 05:40:13;;;;;;;3.30;2.95;;;18.50;49.40;;;;;;4999408;28;20282;-78
2023/04/22 05:42:40;;;;;;;3.30;3.00;;;18.50;49.40;;;;;;4999550;28;20730;-79
2023/04/22 05:45:08;;;;;;;3.00;2.80;;;18.50;49.30;;;;;;4999406;28;20205;-79
2023/04/22 05:47:37;;;;;;;2.95;2.72;;;18.60;49.30;;;;;;4999656;28;20220;-78
2023/04/22 05:50:08;;;;;;;4.13;3.00;;;18.60;49.30;;;;;;4983552;28;20706;-78
2023/04/22 05:52:42;;;;;;;3.13;2.83;;;18.60;49.20;;;;;;4999743;28;20201;-79
2023/04/22 05:55:14;;;;;;;3.05;2.75;;;18.60;49.20;;;;;;4999883;28;20254;-79
2023/04/22 05:57:41;;;;;;;2.90;2.70;;;18.60;49.20;;;;;;4999751;28;20207;-79
2023/04/22 06:00:20;;;;;;;2.90;2.70;;;18.60;49.10;;;;;;4999572;28;20698;-79
2023/04/22 06:03:01;;;;;;;3.20;2.90;;;18.80;49.10;;;;;;4999696;28;20200;-79
2023/04/22 06:05:29;;;;;;;3.40;3.10;;;18.90;49.00;;;;;;4983174;28;20204;-79
2023/04/22 06:07:57;;;;;;;3.40;3.10;;;18.90;49.00;;;;;;4999173;28;20197;-79
2023/04/22 06:10:24;;;;;;;3.33;2.85;;;18.90;49.00;;;;;;4999069;28;20216;-79
2023/04/22 06:12:51;;;;;;;2.83;2.63;;;19.00;48.90;;;;;;4999155;28;20208;-79
2023/04/22 06:15:19;;;;;;;3.10;2.70;;;19.10;48.70;;;;;;4998959;28;20196;-79
2023/04/22 06:17:48;;;;;;;2.85;2.65;;;19.20;48.50;;;;;;4998720;28;20200;-79
2023/04/22 06:20:15;;;;;;;3.67;3.38;;;19.40;48.20;;;;;;4998807;28;20236;-79
2023/04/22 06:22:44;;;;;;;3.75;3.00;;;19.50;47.70;;;;;;4999098;28;20205;-79
2023/04/22 06:25:11;;;;;;;3.15;2.95;;;19.70;47.30;;;;;;4998942;28;20212;-79
2023/04/22 06:27:38;;;;;;;3.38;3.10;;;19.80;47.00;;;;;;4999209;28;20207;-79
2023/04/22 06:30:08;;;;;;;2.92;2.72;;;20.00;46.80;;;;;;4998916;28;20300;-79
2023/04/22 06:32:35;;;;;;;3.33;3.03;;;20.10;46.60;;;;;;4982683;28;20296;-79
2023/04/22 06:35:03;;;;;;;3.58;3.28;;;20.20;46.30;;;;;;4998652;28;20660;-79
2023/04/22 06:37:30;;;;;;;3.30;3.00;;;20.20;45.90;;;;;;4998747;28;20196;-79
2023/04/22 06:39:59;;;;;;;3.40;3.10;;;20.30;46.00;;;;;;4998995;28;20355;-79
2023/04/22 06:42:45;;;;;;;5.30;3.10;;;20.40;46.10;;;;;;5017176;28;20188;-79
2023/04/22 06:45:40;;;;;;;3.42;3.13;;;20.40;45.90;;;;;;4987570;28;20690;-80
2023/04/22 06:48:36;;;;;;;3.63;3.33;;;20.40;45.80;;;;;;4962992;28;20205;-80
2023/04/22 06:51:18;;;;;;;3.20;2.90;;;20.40;45.80;;;;;;4998338;28;20236;-79
2023/04/22 06:53:46;;;;;;;3.20;2.90;;;20.40;45.80;;;;;;4998185;28;20625;-79
2023/04/22 06:56:17;;;;;;;3.50;3.20;;;20.40;45.80;;;;;;4998199;28;20204;-79
2023/04/22 06:58:44;;;;;;;3.65;3.30;;;20.30;45.80;;;;;;4997969;28;20200;-79
2023/04/22 07:01:11;;;;;;;3.35;3.08;;;20.30;45.90;;;;;;4997657;28;20307;-79
2023/04/22 07:03:40;;;;;;;3.63;2.88;;;20.30;45.90;;;;;;4998115;28;20279;-79
2023/04/22 07:06:11;;;;;;;3.65;3.35;;;20.30;45.90;;;;;;4998827;28;20594;-79
2023/04/22 07:08:39;;;;;;;3.55;3.25;;;20.30;45.90;;;;;;4998274;28;20227;-80
2023/04/22 07:11:07;;;;;;;4.93;3.33;;;20.30;46.00;;;;;;4997689;28;20761;-80
2023/04/22 07:13:43;;;;;;;3.35;3.05;;;20.30;45.90;;;;;;4997845;28;20647;-80
2023/04/22 07:16:10;;;;;;;3.20;3.00;;;20.30;45.90;;;;;;4998159;28;20200;-80
2023/04/22 07:18:38;;;;;;;3.60;3.30;;;20.30;46.00;;;;;;4997894;28;20196;-80
2023/04/22 07:21:06;;;;;;;3.30;3.00;;;20.30;45.90;;;;;;4998208;28;20303;-80
2023/04/22 07:23:33;;;;;;;3.20;2.90;;;20.30;45.90;;;;;;5015907;28;20189;-80
2023/04/22 07:26:00;;;;;;;3.30;3.00;;;20.40;45.90;;;;;;4998048;28;20196;-80
2023/04/22 07:28:27;;;;;;;4.10;3.05;;;20.40;45.80;;;;;;4998181;28;20651;-80
2023/04/22 07:30:55;;;;;;;3.10;2.83;;;20.40;45.80;;;;;;4999097;28;20687;-80
2023/04/22 07:33:23;;;;;;;3.00;2.80;;;20.50;45.70;;;;;;4998281;28;20682;-80
2023/04/22 07:35:50;;;;;;;3.60;3.20;;;20.50;45.60;;;;;;4998460;28;20252;-80
2023/04/22 07:38:17;;;;;;;3.30;3.00;;;20.50;45.60;;;;;;4982009;28;20208;-80
2023/04/22 07:40:45;;;;;;;3.10;2.90;;;20.50;45.60;;;;;;4997560;28;20224;-80
2023/04/22 07:43:11;;;;;;;3.47;3.17;;;20.50;45.50;;;;;;4997812;28;20722;-80
2023/04/22 07:45:39;;;;;;;3.22;2.90;;;20.50;45.50;;;;;;4998024;28;20200;-80
2023/04/22 07:48:07;;;;;;;3.88;3.10;;;20.60;45.50;;;;;;4997452;28;20204;-80
2023/04/22 07:50:34;;;;;;;3.28;3.00;;;20.60;45.50;;;;;;4997283;28;20221;-80
2023/04/22 07:53:02;;;;;;;3.00;2.75;;;20.60;45.40;;;;;;4997956;28;20196;-80
2023/04/22 07:55:29;;;;;;;2.85;2.65;;;20.60;45.30;;;;;;4997376;28;20200;-80
2023/04/22 07:57:56;;;;;;;3.22;3.00;;;20.70;45.20;;;;;;4997289;28;20296;-80
2023/04/22 08:00:23;;;;;;;3.83;2.90;;;20.70;45.10;;;;;;4996854;28;20224;-80
2023/04/22 08:02:51;;;;;;;2.92;2.72;;;20.80;45.00;;;;;;4997002;28;20193;-80
2023/04/22 08:05:19;;;;;;;3.35;3.05;;;20.80;45.00;;;;;;4997122;28;20193;-80
2023/04/22 08:07:46;;;;;;;2.92;2.72;;;20.80;45.00;;;;;;4997515;28;20307;-80
2023/04/22 08:10:13;;;;;;;3.30;3.00;;;20.70;44.90;;;;;;4997881;28;20271;-80
2023/04/22 08:12:41;;;;;;;3.42;2.70;;;20.80;45.60;;;;;;4997144;28;20555;-80
2023/04/22 08:15:08;;;;;;;2.92;2.70;;;20.90;44.90;;;;;;4981939;28;20537;-80
2023/04/22 08:17:36;;;;;;;3.05;2.75;;;20.90;45.00;;;;;;4997990;28;20204;-80
2023/04/22 08:20:03;;;;;;;2.80;2.60;;;20.90;44.80;;;;;;4997409;28;20270;-80
2023/04/22 08:22:34;;;;;;;3.08;2.88;;;21.00;44.70;;;;;;4997697;28;20212;-80
2023/04/22 08:25:01;;;;;;;2.75;2.53;;;21.00;44.60;;;;;;4998630;28;20189;-80
2023/04/22 08:27:28;;;;;;;3.20;2.78;;;21.10;44.50;;;;;;4998203;28;20193;-80
2023/04/22 08:29:55;;;;;;;2.70;2.50;;;21.10;44.50;;;;;;4997208;28;20212;-80
2023/04/22 08:32:25;;;;;;;2.78;2.58;;;21.10;44.40;;;;;;4997238;28;20192;-80
2023/04/22 08:34:52;;;;;;;3.10;2.80;;;21.20;44.30;;;;;;4998991;28;20201;-80
2023/04/22 08:37:19;;;;;;;3.00;2.80;;;21.20;44.30;;;;;;4998456;28;20318;-80
2023/04/22 08:39:48;;;;;;;2.92;2.67;;;21.30;44.20;;;;;;4997650;28;20200;-80
2023/04/22 08:42:15;;;;;;;2.70;2.50;;;21.30;44.10;;;;;;4981019;28;20710;-80
2023/04/22 08:44:43;;;;;;;2.50;2.30;;;21.50;43.90;;;;;;4997384;28;20295;-80
2023/04/22 08:47:10;;;;;;;2.45;2.25;;;21.60;43.60;;;;;;4997696;28;20204;-80
2023/04/22 08:49:37;;;;;;;2.40;2.20;;;21.70;43.40;;;;;;4997680;28;20200;-80
2023/04/22 08:52:04;;;;;;;2.67;2.47;;;21.90;43.10;;;;;;4997758;28;20203;-80
2023/04/22 08:54:33;;;;;;;2.60;2.30;;;22.10;42.90;;;;;;4997613;28;20216;-80
2023/04/22 08:57:02;;;;;;;2.72;2.53;;;22.20;42.70;;;;;;4997357;28;20201;-80
2023/04/22 08:59:29;;;;;;;3.33;2.30;;;22.30;42.60;;;;;;4982677;28;20225;-80
2023/04/22 09:01:57;;;;;;;2.50;2.30;;;22.30;42.50;;;;;;5001483;28;20305;-80
2023/04/22 09:04:24;;;;;;;2.40;2.20;;;22.40;42.50;;;;;;5001001;28;20610;-80
2023/04/22 09:06:51;;;;;;;2.67;2.47;;;22.50;42.10;;;;;;5000750;28;20266;-79
2023/04/22 09:09:19;;;;;;;2.30;2.10;;;22.60;41.90;;;;;;5001107;28;20300;-80
2023/04/22 09:11:46;;;;;;;2.30;2.10;;;22.70;41.80;;;;;;5000987;28;20733;-80
2023/04/22 09:14:14;;;;;;;2.20;2.10;;;22.80;41.60;;;;;;5000410;28;20197;-80
2023/04/22 09:16:42;;;;;;;2.38;2.13;;;22.90;41.30;;;;;;5001419;28;20208;-80
2023/04/22 09:19:12;;;;;;;2.40;2.20;;;23.00;41.20;;;;;;5000331;28;20201;-80
2023/04/22 09:21:39;;;;;;;2.33;2.17;;;23.10;40.90;;;;;;5000781;28;20279;-80
2023/04/22 09:24:07;;;;;;;2.53;2.33;;;23.20;41.00;;;;;;4984840;28;20208;-80
2023/04/22 09:26:35;;;;;;;2.38;2.17;;;23.20;40.90;;;;;;5000132;28;20204;-80
2023/04/22 09:29:03;;;;;;;2.47;2.28;;;23.20;40.90;;;;;;4999964;28;20200;-80
2023/04/22 09:31:32;;;;;;;2.20;2.10;;;23.10;40.90;;;;;;4999966;28;20584;-80
2023/04/22 09:33:59;;;;;;;2.20;2.10;;;23.10;41.20;;;;;;5000740;28;20199;-80
2023/04/22 09:36:27;;;;;;;2.30;2.20;;;23.00;41.20;;;;;;5001005;28;20200;-80
2023/04/22 09:38:54;;;;;;;2.13;2.03;;;22.90;41.30;;;;;;5000891;28;20270;-80
2023/04/22 09:41:28;;;;;;;2.53;2.33;;;22.90;41.30;;;;;;5001206;28;20551;-80
2023/04/22 09:43:56;;;;;;;2.35;2.20;;;22.90;41.30;;;;;;5001423;28;20201;-80
2023/04/22 09:46:24;;;;;;;2.15;2.05;;;22.90;41.20;;;;;;5000535;28;20545;-80
2023/04/22 09:48:53;;;;;;;2.20;2.00;;;22.90;41.10;;;;;;4999800;28;20196;-80
2023/04/22 09:51:20;;;;;;;2.17;2.08;;;22.90;41.20;;;;;;5000708;28;20217;-80
2023/04/22 09:53:58;;;;;;;2.42;2.22;;;23.00;41.20;;;;;;5000322;28;20563;-80
2023/04/22 09:56:40;;;;;;;2.60;2.40;;;23.00;41.10;;;;;;5001066;28;20197;-80
2023/04/22 09:59:08;;;;;;;2.30;2.10;;;23.00;41.00;;;;;;5001154;28;20193;-80
2023/04/22 10:01:36;;;;;;;2.53;2.33;;;23.10;41.00;;;;;;5000242;28;20231;-80
2023/04/22 10:04:05;;;;;;;2.40;2.20;;;23.00;41.00;;;;;;5000052;28;20204;-79
2023/04/22 10:06:32;;;;;;;1.95;1.85;;;23.10;41.00;;;;;;5004234;28;20211;-80
2023/04/22 10:09:00;;;;;;;2.60;2.40;;;23.10;40.90;;;;;;5003679;28;20200;-80
2023/04/22 10:11:28;;;;;;;2.50;2.30;;;23.10;40.90;;;;;;5000329;28;20216;-80
2023/04/22 10:13:55;;;;;;;2.40;2.20;;;23.10;40.90;;;;;;5000768;28;20197;-80
2023/04/22 10:16:22;;;;;;;2.47;2.10;;;23.10;40.80;;;;;;5001860;28;20227;-80
2023/04/22 10:18:49;;;;;;;2.10;2.00;;;23.10;40.80;;;;;;5002310;28;20263;-80
2023/04/22 10:21:18;;;;;;;2.42;2.22;;;23.10;40.70;;;;;;5002210;28;20690;-80
2023/04/22 10:23:46;;;;;;;2.20;2.00;;;23.20;40.90;;;;;;5002533;28;20284;-80
2023/04/22 10:26:13;;;;;;;2.03;1.92;;;23.10;40.70;;;;;;5002125;28;20204;-80
2023/04/22 10:28:43;;;;;;;2.45;2.22;;;23.20;40.80;;;;;;4986086;28;20200;-78
2023/04/22 10:31:20;;;;;;;1.98;1.88;;;23.20;40.90;;;;;;5018978;28;20259;-79
2023/04/22 10:33:47;;;;;;;2.00;1.90;;;23.20;40.70;;;;;;5018858;28;20184;-79
2023/04/22 10:36:18;;;;;;;2.15;2.00;;;23.10;40.70;;;;;;5001287;28;20197;-79
2023/04/22 10:39:16;;;;;;;2.15;2.05;;;23.20;40.80;;;;;;5002391;28;20247;-79
2023/04/22 10:41:50;;;;;;;1.92;1.83;;;23.10;40.70;;;;;;5000581;28;20311;-79
2023/04/22 10:44:17;;;;;;;2.30;2.20;;;23.20;40.80;;;;;;5000938;28;20224;-79
2023/04/22 10:47:00;;;;;;;1.90;1.80;;;23.10;40.70;;;;;;5000339;28;20259;-79
2023/04/22 10:49:29;;;;;;;2.08;1.98;;;23.20;40.80;;;;;;5000322;28;20235;-79
2023/04/22 10:51:58;;;;;;;2.30;2.10;;;23.20;40.80;;;;;;4999727;28;20217;-79
2023/04/22 10:54:58;;;;;;;2.13;1.90;;;23.20;40.80;;;;;;5000273;28;20196;-79
2023/04/22 10:57:36;;;;;;;2.40;2.20;;;23.10;40.70;;;;;;5002823;28;20201;-79
2023/04/22 11:00:19;;;;;;;2.20;2.10;;;23.20;40.80;;;;;;5001321;28;20691;-79
2023/04/22 11:02:47;;;;;;;1.90;1.80;;;23.20;40.80;;;;;;5000842;28;20226;-79
2023/04/22 11:05:21;;;;;;;2.33;2.13;;;23.20;40.70;;;;;;5002579;28;20255;-79
2023/04/22 11:07:50;;;;;;;2.20;2.10;;;23.20;40.80;;;;;;4998957;28;20196;-79
2023/04/22 11:10:34;;;;;;;1.88;1.77;;;23.20;40.80;;;;;;4999307;28;20228;-79
2023/04/22 11:13:02;;;;;;;2.10;1.95;;;23.10;40.80;;;;;;5002461;28;20197;-79
2023/04/22 11:15:29;;;;;;;2.03;1.92;;;23.10;40.80;;;;;;5002236;28;20268;-79
2023/04/22 11:18:14;;;;;;;2.00;1.90;;;23.10;40.80;;;;;;5090735;27;20671;-55
2023/04/22 11:20:41;;;;;;;2.00;1.90;;;23.10;40.90;;;;;;5089426;28;20229;-55
2023/04/22 11:23:09;;;;;;;2.00;1.90;;;23.10;40.90;;;;;;5090853;28;20209;-55
2023/04/22 11:25:36;;;;;;;1.98;1.80;;;23.10;40.90;;;;;;5090434;28;20685;-55
2023/04/22 11:28:04;;;;;;;2.28;2.10;;;23.10;40.90;;;;;;5089246;28;20194;-55
2023/04/22 11:30:31;;;;;;;2.00;1.90;;;23.10;40.90;;;;;;5089138;28;20201;-55
2023/04/22 11:32:59;;;;;;;1.90;1.80;;;23.10;40.90;;;;;;5089151;28;20294;-55
2023/04/22 11:35:29;;;;;;;1.90;1.80;;;23.10;41.00;;;;;;5090278;28;20247;-55
2023/04/22 11:37:58;;;;;;;1.95;1.85;;;23.10;41.00;;;;;;5090161;28;20206;-55
2023/04/22 11:40:27;;;;;;;1.80;1.70;;;23.10;41.00;;;;;;5089057;28;20197;-55
2023/04/22 11:42:54;;;;;;;2.00;1.90;;;23.10;41.00;;;;;;5090379;28;20194;-55
2023/04/22 11:45:22;;;;;;;2.10;2.00;;;23.10;41.00;;;;;;5074511;22;20227;-80
2023/04/22 11:47:50;;;;;;;2.83;2.33;;;23.10;41.10;;;;;;5049930;28;20570;-79
2023/04/22 11:50:18;;;;;;;2.10;1.98;;;23.10;41.20;;;;;;5033621;28;20224;-80
2023/04/22 11:52:49;;;;;;;1.98;1.83;;;23.10;41.10;;;;;;5050590;28;20222;-81
2023/04/22 11:55:22;;;;;;;2.20;1.90;;;23.10;41.00;;;;;;5049761;28;20627;-81
2023/04/22 11:57:56;;;;;;;2.30;1.60;;;23.10;40.90;;;;;;5049281;28;20719;-80
2023/04/22 12:00:24;;;;;;;2.30;2.00;;;23.10;40.80;;;;;;5032982;28;20763;-80
2023/04/22 12:02:59;;;;;;;2.60;1.95;;;23.10;40.50;;;;;;5049336;28;20741;-80
2023/04/22 12:05:33;;;;;;;2.28;2.08;;;23.10;40.20;;;;;;5049390;28;20195;-80
2023/04/22 12:08:03;;;;;;;6.47;2.05;;;23.10;39.60;;;;;;5033459;28;20187;-80
2023/04/22 12:10:30;;;;;;;1.77;1.67;;;23.10;39.50;;;;;;5049758;28;20219;-80
2023/04/22 12:12:58;;;;;;;2.10;1.90;;;23.20;39.40;;;;;;5050480;28;20210;-80
2023/04/22 12:15:25;;;;;;;2.35;1.83;;;23.20;39.20;;;;;;5051345;28;20796;-81
2023/04/22 12:17:52;;;;;;;2.35;2.00;;;23.20;39.20;;;;;;5054386;28;20226;-80
2023/04/22 12:20:20;;;;;;;2.15;1.90;;;23.20;38.80;;;;;;5055316;28;20314;-80
2023/04/22 12:22:48;;;;;;;2.45;1.88;;;23.20;39.20;;;;;;5034221;28;20218;-80
2023/04/22 12:25:19;;;;;;;1.73;1.63;;;23.20;39.20;;;;;;5051367;28;20200;-80
2023/04/22 12:27:46;;;;;;;1.90;1.70;;;23.20;38.80;;;;;;5046937;28;20560;-81
2023/04/22 12:30:15;;;;;;;1.92;1.52;;;23.30;37.90;;;;;;5038314;28;20216;-80
2023/04/22 12:32:42;;;;;;;2.20;1.52;;;23.20;38.30;;;;;;5037800;28;20254;-80
2023/04/22 12:35:09;;;;;;;3.38;2.40;;;23.30;38.10;;;;;;5037041;28;20254;-80
2023/04/22 12:37:36;;;;;;;2.60;1.90;;;23.30;37.80;;;;;;5036560;28;20227;-80
2023/04/22 12:40:05;;;;;;;3.50;1.88;;;23.20;37.50;;;;;;5036720;28;20216;-80
2023/04/22 12:42:34;;;;;;;4.50;1.90;;;23.20;37.60;;;;;;5036382;28;20204;-80
2023/04/22 12:45:01;;;;;;;2.75;1.70;;;23.20;37.60;;;;;;5037638;28;20215;-81
2023/04/22 12:47:28;;;;;;;2.60;1.88;;;23.30;37.60;;;;;;5037668;28;20651;-80
2023/04/22 12:49:55;;;;;;;2.83;1.88;;;23.20;37.50;;;;;;5037080;28;20565;-80
2023/04/22 12:52:22;;;;;;;3.60;1.83;;;23.20;37.50;;;;;;5037346;28;20612;-81
2023/04/22 12:54:49;;;;;;;1.92;1.83;;;23.20;36.90;;;;;;5020383;28;20204;-80
2023/04/22 12:57:16;;;;;;;3.50;1.80;;;23.20;37.00;;;;;;5037066;28;20319;-80